createdAt,value
2022-12-26T00:00:21.498Z,30.67
2022-12-26T00:02:48.088Z,24.25
2022-12-26T00:05:14.739Z,25.98
2022-12-26T00:07:41.319Z,31.23
2022-12-26T00:10:08.170Z,29.92
2022-12-26T00:12:35.347Z,26.75
2022-12-26T00:15:02.213Z,28.15
2022-12-26T00:17:28.736Z,29.75
2022-12-26T00:19:55.263Z,32.28
2022-12-26T00:22:21.831Z,27.17
2022-12-26T00:24:48.298Z,22.35
2022-12-26T00:27:14.833Z,33.75
2022-12-26T00:29:41.409Z,24.25
2022-12-26T00:32:07.941Z,30.63
2022-12-26T00:34:34.592Z,37.85
2022-12-26T00:37:01.081Z,35.80
2022-12-26T00:39:28.043Z,30.25
2022-12-26T00:41:54.807Z,32.05
2022-12-26T00:44:21.336Z,32.17
2022-12-26T00:46:47.911Z,27.98
2022-12-26T00:49:14.430Z,31.02
2022-12-26T00:51:40.912Z,29.10
2022-12-26T00:54:07.443Z,29.92
2022-12-26T00:56:33.942Z,26.70
2022-12-26T00:59:00.765Z,28.17
2022-12-26T01:01:30.972Z,32.17
2022-12-26T01:03:58.331Z,31.05
2022-12-26T01:06:25.015Z,31.42
2022-12-26T01:08:53.507Z,32.65
2022-12-26T01:11:38.619Z,31.30
2022-12-26T01:14:13.131Z,23.73
2022-12-26T01:19:07.020Z,22.17
2022-12-26T01:21:34.503Z,35.00
2022-12-26T01:24:01.972Z,31.00
2022-12-26T01:26:28.497Z,31.63
2022-12-26T01:28:55.101Z,26.92
2022-12-26T01:31:22.660Z,40.35
2022-12-26T01:33:49.331Z,32.53
2022-12-26T01:36:17.163Z,28.33
2022-12-26T01:38:44.261Z,27.70
2022-12-26T01:41:17.281Z,26.73
2022-12-26T01:43:47.895Z,33.70
2022-12-26T01:46:16.459Z,29.42
2022-12-26T01:48:43.122Z,27.23
2022-12-26T01:51:09.909Z,34.75
2022-12-26T01:53:41.587Z,32.97
2022-12-26T01:56:15.336Z,31.50
2022-12-26T01:58:48.938Z,28.40
2022-12-26T02:01:15.969Z,25.03
2022-12-26T02:04:04.887Z,30.75
2022-12-26T02:06:32.784Z,44.20
2022-12-26T02:08:59.804Z,27.58
2022-12-26T02:11:36.305Z,22.10
2022-12-26T02:14:06.973Z,27.70
2022-12-26T02:16:36.336Z,27.35
2022-12-26T02:19:06.707Z,22.33
2022-12-26T02:21:33.300Z,37.65
2022-12-26T02:24:27.885Z,29.15
2022-12-26T02:27:21.638Z,26.98
2022-12-26T02:30:07.068Z,30.63
2022-12-26T02:33:12.964Z,31.20
2022-12-26T02:36:07.450Z,31.98
2022-12-26T02:38:45.526Z,29.02
2022-12-26T02:41:36.960Z,22.20
2022-12-26T02:44:34.924Z,25.75
2022-12-26T02:47:19.869Z,28.35
2022-12-26T02:50:13.880Z,28.13
2022-12-26T02:53:36.688Z,29.23
2022-12-26T02:56:33.511Z,35.80
2022-12-26T02:59:55.359Z,25.80
2022-12-26T03:02:42.760Z,32.47
2022-12-26T03:05:38.547Z,23.05
2022-12-26T03:08:27.880Z,26.70
2022-12-26T03:11:31.578Z,27.33
2022-12-26T03:14:10.783Z,31.63
2022-12-26T03:16:56.673Z,32.97
2022-12-26T03:19:25.802Z,28.25
2022-12-26T03:21:53.019Z,30.08
2022-12-26T03:24:22.434Z,25.80
2022-12-26T03:26:53.999Z,39.10
2022-12-26T03:29:41.487Z,32.58
2022-12-26T03:32:11.759Z,29.98
2022-12-26T03:34:42.675Z,34.38
2022-12-26T03:37:21.054Z,29.88
2022-12-26T03:40:12.318Z,32.28
2022-12-26T03:43:09.600Z,26.08
2022-12-26T03:46:00.750Z,41.25
2022-12-26T03:49:12.384Z,33.70
2022-12-26T03:52:23.294Z,30.90
2022-12-26T03:55:08.826Z,33.65
2022-12-26T03:58:10.078Z,34.60
2022-12-26T04:00:58.672Z,27.63
2022-12-26T04:03:46.342Z,30.35
2022-12-26T04:06:39.540Z,33.85
2022-12-26T04:09:50.539Z,34.03
2022-12-26T04:12:43.317Z,29.70
2022-12-26T04:15:54.863Z,33.97
2022-12-26T04:18:47.070Z,34.25
2022-12-26T04:21:41.087Z,29.05
2022-12-26T04:24:32.640Z,40.88
2022-12-26T04:27:22.315Z,32.88
2022-12-26T04:30:07.824Z,32.72
2022-12-26T04:33:01.293Z,36.10
2022-12-26T04:35:54.767Z,39.22
2022-12-26T04:38:45.806Z,34.75
2022-12-26T04:41:32.211Z,39.78
2022-12-26T04:44:12.566Z,37.63
2022-12-26T04:46:42.564Z,35.22
2022-12-26T04:49:30.205Z,32.53
2022-12-26T04:51:57.910Z,28.58
2022-12-26T04:54:25.174Z,34.13
2022-12-26T04:56:52.035Z,39.80
2022-12-26T04:59:19.486Z,33.75
2022-12-26T05:02:04.674Z,36.88
2022-12-26T05:04:50.102Z,26.85
2022-12-26T05:07:37.150Z,38.47
2022-12-26T05:10:05.942Z,32.60
2022-12-26T05:12:32.528Z,24.95
2022-12-26T05:14:59.075Z,22.92
2022-12-26T05:17:44.293Z,26.98
2022-12-26T05:20:31.394Z,36.13
2022-12-26T05:23:18.215Z,37.17
2022-12-26T05:26:04.900Z,26.33
2022-12-26T05:28:43.253Z,33.83
2022-12-26T05:31:16.280Z,35.67
2022-12-26T05:34:01.790Z,27.58
2022-12-26T05:36:31.996Z,26.15
2022-12-26T05:38:58.589Z,25.45
2022-12-26T05:41:25.140Z,30.45
2022-12-26T05:43:51.653Z,29.65
2022-12-26T05:46:18.270Z,36.58
2022-12-26T05:48:44.996Z,28.20
2022-12-26T05:51:11.643Z,33.65
2022-12-26T05:53:38.175Z,29.83
2022-12-26T05:56:11.946Z,28.17
2022-12-26T05:58:39.472Z,31.20
2022-12-26T06:01:11.830Z,30.50
2022-12-26T06:03:39.565Z,29.17
2022-12-26T06:06:07.054Z,23.80
2022-12-26T06:08:34.318Z,35.40
2022-12-26T06:11:05.002Z,26.30
2022-12-26T06:13:31.974Z,26.98
2022-12-26T06:15:58.816Z,32.25
2022-12-26T06:18:26.166Z,38.60
2022-12-26T06:20:52.832Z,31.50
2022-12-26T06:23:19.308Z,37.65
2022-12-26T06:25:53.611Z,36.38
2022-12-26T06:28:20.165Z,30.80
2022-12-26T06:30:47.025Z,29.45
2022-12-26T06:33:13.513Z,29.70
2022-12-26T06:35:40.031Z,35.15
2022-12-26T06:38:06.595Z,29.63
2022-12-26T06:40:33.108Z,31.58
2022-12-26T06:42:59.616Z,33.72
2022-12-26T06:45:26.729Z,32.75
2022-12-26T06:47:53.673Z,33.10
2022-12-26T06:50:22.984Z,34.47
2022-12-26T06:52:49.478Z,33.35
2022-12-26T06:55:16.053Z,27.08
2022-12-26T06:57:42.582Z,36.00
2022-12-26T07:00:10.461Z,35.03
2022-12-26T07:02:37.267Z,34.95
2022-12-26T07:05:04.193Z,36.55
2022-12-26T07:07:30.662Z,35.72
2022-12-26T07:09:57.220Z,38.75
2022-12-26T07:12:23.791Z,33.33
2022-12-26T07:14:50.669Z,42.72
2022-12-26T07:17:17.213Z,36.72
2022-12-26T07:19:43.703Z,32.65
2022-12-26T07:22:10.240Z,29.48
2022-12-26T07:24:37.351Z,34.20
2022-12-26T07:27:03.996Z,33.30
2022-12-26T07:29:30.540Z,36.72
2022-12-26T07:31:58.161Z,33.28
2022-12-26T07:34:31.076Z,40.25
2022-12-26T07:36:58.191Z,32.10
2022-12-26T07:39:24.960Z,32.97
2022-12-26T07:41:57.767Z,34.35
2022-12-26T07:44:28.862Z,36.28
2022-12-26T07:46:56.414Z,30.25
2022-12-26T07:49:23.548Z,30.67
2022-12-26T07:51:51.453Z,26.85
2022-12-26T07:54:18.842Z,28.80
2022-12-26T07:56:45.507Z,27.27
2022-12-26T07:59:16.665Z,31.17
2022-12-26T08:01:44.032Z,30.80
2022-12-26T08:04:11.852Z,32.85
2022-12-26T08:06:38.698Z,33.65
2022-12-26T08:09:05.382Z,29.55
2022-12-26T08:11:34.494Z,29.92
2022-12-26T08:14:01.631Z,30.80
2022-12-26T08:16:28.847Z,24.38
2022-12-26T08:18:55.399Z,38.75
2022-12-26T08:21:21.945Z,27.98
2022-12-26T08:23:48.627Z,27.90
2022-12-26T08:26:22.652Z,30.92
2022-12-26T08:28:51.256Z,39.42
2022-12-26T08:31:19.334Z,40.80
2022-12-26T08:33:46.047Z,37.75
2022-12-26T08:36:14.018Z,29.30
2022-12-26T08:38:40.981Z,29.83
2022-12-26T08:41:07.601Z,27.58
2022-12-26T08:44:03.588Z,25.65
2022-12-26T08:46:21.951Z,22.90
2022-12-26T08:48:49.768Z,30.08
2022-12-26T08:51:23.072Z,32.50
2022-12-26T08:53:50.979Z,22.35
2022-12-26T08:56:20.807Z,33.20
2022-12-26T08:58:48.037Z,36.45
2022-12-26T09:01:23.483Z,36.70
2022-12-26T09:03:58.810Z,48.05
2022-12-26T09:06:26.365Z,38.38
2022-12-26T09:08:53.724Z,39.30
2022-12-26T09:11:26.705Z,28.35
2022-12-26T09:13:55.057Z,32.75
2022-12-26T09:16:25.611Z,30.88
2022-12-26T09:19:02.138Z,30.15
2022-12-26T09:21:29.601Z,32.28
2022-12-26T09:23:58.274Z,41.08
2022-12-26T09:26:25.864Z,36.03
2022-12-26T09:28:53.509Z,38.92
2022-12-26T09:31:23.166Z,43.92
2022-12-26T09:33:50.098Z,32.25
2022-12-26T09:36:29.181Z,37.95
2022-12-26T09:38:57.619Z,34.20
2022-12-26T09:41:42.157Z,40.67
2022-12-26T09:44:14.729Z,41.30
2022-12-26T09:46:49.086Z,38.00
2022-12-26T09:49:21.921Z,38.45
2022-12-26T09:51:54.151Z,37.60
2022-12-26T09:54:47.651Z,36.17
2022-12-26T09:57:23.751Z,33.00
2022-12-26T09:59:56.592Z,32.92
2022-12-26T10:02:25.377Z,32.78
2022-12-26T10:04:53.899Z,29.75
2022-12-26T10:07:46.278Z,41.80
2022-12-26T10:10:16.487Z,31.15
2022-12-26T10:12:55.906Z,34.65
2022-12-26T10:15:25.339Z,34.95
2022-12-26T10:18:16.001Z,38.30
2022-12-26T10:21:13.218Z,33.03
2022-12-26T10:23:46.730Z,31.67
2022-12-26T10:26:20.268Z,41.07
2022-12-26T10:29:07.762Z,32.47
2022-12-26T10:31:43.243Z,33.17
2022-12-26T10:34:21.309Z,26.40
2022-12-26T10:37:14.913Z,36.10
2022-12-26T10:39:58.000Z,29.15
2022-12-26T10:42:27.436Z,27.27
2022-12-26T10:44:54.019Z,29.20
2022-12-26T10:47:32.750Z,27.45
2022-12-26T10:50:00.421Z,28.23
2022-12-26T10:52:37.084Z,31.05
2022-12-26T10:55:28.118Z,24.63
2022-12-26T10:57:53.202Z,17.67
2022-12-26T11:00:22.915Z,21.60
2022-12-26T11:03:04.240Z,21.80
2022-12-26T11:05:57.405Z,19.92
2022-12-26T11:08:20.777Z,28.25
2022-12-26T11:11:45.518Z,21.77
2022-12-26T11:14:33.699Z,12.07
2022-12-26T11:17:05.121Z,20.90
2022-12-26T11:19:36.200Z,17.10
2022-12-26T11:22:25.532Z,18.52
2022-12-26T11:25:15.075Z,19.02
2022-12-26T11:27:44.508Z,18.23
2022-12-26T11:30:14.022Z,16.42
2022-12-26T11:32:42.355Z,16.08
2022-12-26T11:35:21.820Z,15.60
2022-12-26T11:37:56.575Z,18.45
2022-12-26T11:40:32.841Z,17.77
2022-12-26T11:43:03.127Z,17.15
2022-12-26T11:45:37.032Z,15.77
2022-12-26T11:48:19.238Z,13.93
2022-12-26T11:50:46.729Z,20.38
2022-12-26T11:53:17.972Z,16.15
2022-12-26T11:55:45.215Z,12.00
2022-12-26T11:58:20.945Z,17.73
2022-12-26T12:00:50.267Z,17.40
2022-12-26T12:03:28.719Z,14.70
2022-12-26T12:06:07.713Z,13.50
2022-12-26T12:08:49.413Z,15.20
2022-12-26T12:11:27.565Z,15.65
2022-12-26T12:14:02.351Z,21.77
2022-12-26T12:16:56.831Z,15.27
2022-12-26T12:19:51.998Z,16.33
2022-12-26T12:22:25.399Z,20.05
2022-12-26T12:25:13.512Z,18.93
2022-12-26T12:27:47.929Z,15.55
2022-12-26T12:33:05.882Z,16.00
2022-12-26T12:35:50.309Z,16.13
2022-12-26T12:38:54.860Z,25.98
2022-12-26T12:41:57.325Z,11.60
2022-12-26T12:44:54.048Z,15.20
2022-12-26T12:47:52.823Z,23.40
2022-12-26T12:50:39.987Z,20.38
2022-12-26T12:53:24.053Z,19.23
2022-12-26T12:55:56.334Z,17.58
2022-12-26T12:58:56.250Z,17.13
2022-12-26T13:01:33.243Z,18.55
2022-12-26T13:04:16.231Z,13.95
2022-12-26T13:07:08.949Z,22.48
2022-12-26T13:09:47.964Z,18.67
2022-12-26T13:12:24.897Z,18.27
2022-12-26T13:15:02.356Z,26.52
2022-12-26T13:17:41.105Z,18.05
2022-12-26T13:20:34.420Z,17.15
2022-12-26T13:23:32.809Z,14.98
2022-12-26T13:26:11.613Z,14.88
2022-12-26T13:28:47.656Z,15.57
2022-12-26T13:31:14.411Z,17.92
2022-12-26T13:33:43.026Z,16.83
2022-12-26T13:36:10.575Z,25.52
2022-12-26T13:38:58.600Z,14.50
2022-12-26T13:41:45.265Z,16.48
2022-12-26T13:44:20.796Z,17.65
2022-12-26T13:46:47.309Z,18.90
2022-12-26T13:49:40.012Z,18.73
2022-12-26T13:52:12.527Z,14.15
2022-12-26T13:54:48.265Z,17.73
2022-12-26T13:57:29.714Z,17.63
2022-12-26T14:00:23.589Z,14.93
2022-12-26T14:03:44.345Z,17.52
2022-12-26T14:06:35.142Z,17.35
2022-12-26T14:09:29.325Z,20.38
2022-12-26T14:11:58.714Z,18.75
2022-12-26T14:14:31.286Z,18.38
2022-12-26T14:17:06.884Z,18.73
2022-12-26T14:19:36.297Z,15.68
2022-12-26T14:22:27.691Z,12.23
2022-12-26T14:25:14.239Z,10.98
2022-12-26T14:28:29.910Z,10.90
2022-12-26T14:34:16.511Z,14.38
2022-12-26T14:36:51.892Z,14.02
2022-12-26T14:39:52.635Z,14.60
2022-12-26T14:42:48.036Z,14.45
2022-12-26T14:45:34.974Z,13.18
2022-12-26T14:48:01.735Z,11.70
2022-12-26T14:50:49.421Z,14.50
2022-12-26T14:53:27.149Z,14.65
2022-12-26T14:56:01.624Z,9.82
2022-12-26T14:58:31.341Z,17.52
2022-12-26T15:01:37.835Z,16.73
2022-12-26T15:04:10.157Z,13.88
2022-12-26T15:06:58.376Z,13.98
2022-12-26T15:09:56.925Z,12.82
2022-12-26T15:12:41.980Z,9.90
2022-12-26T15:16:05.037Z,11.95
2022-12-26T15:18:43.487Z,9.93
2022-12-26T15:21:18.809Z,8.98
2022-12-26T15:24:00.569Z,11.77
2022-12-26T15:26:55.233Z,14.27
2022-12-26T15:29:46.454Z,17.10
2022-12-26T15:32:34.577Z,9.13
2022-12-26T15:35:39.596Z,13.43
2022-12-26T15:38:27.267Z,22.38
2022-12-26T15:41:08.614Z,16.50
2022-12-26T15:43:59.554Z,16.98
2022-12-26T15:46:29.104Z,12.15
2022-12-26T15:49:01.760Z,11.68
2022-12-26T15:52:01.586Z,18.42
2022-12-26T15:54:51.226Z,19.13
2022-12-26T15:57:36.474Z,20.63
2022-12-26T16:00:03.932Z,18.65
2022-12-26T16:02:40.941Z,14.98
2022-12-26T16:05:29.202Z,12.07
2022-12-26T16:08:10.780Z,13.52
2022-12-26T16:10:37.727Z,12.35
2022-12-26T16:13:13.348Z,14.20
2022-12-26T16:16:00.591Z,12.93
2022-12-26T16:18:30.869Z,9.77
2022-12-26T16:21:22.849Z,19.63
2022-12-26T16:23:52.095Z,13.85
2022-12-26T16:26:30.832Z,12.40
2022-12-26T16:29:00.213Z,18.73
2022-12-26T16:31:31.115Z,16.30
2022-12-26T16:33:59.163Z,18.75
2022-12-26T16:36:28.461Z,15.05
2022-12-26T16:38:55.922Z,14.82
2022-12-26T16:41:27.064Z,16.27
2022-12-26T16:43:55.680Z,14.77
2022-12-26T16:46:27.035Z,13.82
2022-12-26T16:48:57.153Z,21.55
2022-12-26T16:51:42.300Z,20.85
2022-12-26T16:54:21.360Z,18.42
2022-12-26T16:57:04.657Z,15.50
2022-12-26T16:59:40.212Z,12.35
2022-12-26T17:02:16.286Z,14.25
2022-12-26T17:04:55.490Z,15.90
2022-12-26T17:07:25.211Z,17.02
2022-12-26T17:09:57.471Z,14.52
2022-12-26T17:12:25.722Z,16.00
2022-12-26T17:14:54.342Z,19.80
2022-12-26T17:17:23.831Z,18.27
2022-12-26T17:19:57.646Z,19.40
2022-12-26T17:22:34.655Z,19.40
2022-12-26T17:25:29.527Z,16.15
2022-12-26T17:28:08.399Z,22.60
2022-12-26T17:30:39.279Z,21.38
2022-12-26T17:33:14.808Z,21.27
2022-12-26T17:36:38.263Z,17.73
2022-12-26T17:38:31.842Z,23.58
2022-12-26T17:41:02.828Z,26.90
2022-12-26T17:43:37.027Z,26.85
2022-12-26T17:46:05.225Z,24.17
2022-12-26T17:48:32.027Z,23.50
2022-12-26T17:51:01.673Z,26.48
2022-12-26T17:53:33.146Z,21.70
2022-12-26T17:56:02.209Z,30.23
2022-12-26T17:58:29.588Z,32.85
2022-12-26T18:00:56.394Z,31.10
2022-12-26T18:03:23.694Z,29.95
2022-12-26T18:05:50.511Z,30.38
2022-12-26T18:08:26.256Z,29.88
2022-12-26T18:10:53.159Z,35.17
2022-12-26T18:13:19.703Z,32.95
2022-12-26T18:15:46.778Z,40.97
2022-12-26T18:18:37.675Z,29.27
2022-12-26T18:21:06.506Z,31.05
2022-12-26T18:23:32.989Z,34.47
2022-12-26T18:26:02.180Z,30.88
2022-12-26T18:28:29.240Z,28.85
2022-12-26T18:30:57.967Z,30.88
2022-12-26T18:33:25.528Z,36.83
2022-12-26T18:35:52.455Z,33.35
2022-12-26T18:38:21.865Z,39.25
2022-12-26T18:40:53.380Z,39.28
2022-12-26T18:43:20.257Z,28.67
2022-12-26T18:45:46.797Z,37.90
2022-12-26T18:48:15.332Z,31.52
2022-12-26T18:50:42.805Z,37.10
2022-12-26T18:53:09.935Z,31.63
2022-12-26T18:55:36.779Z,36.78
2022-12-26T18:58:03.337Z,41.95
2022-12-26T19:00:30.483Z,30.08
2022-12-26T19:02:57.143Z,34.70
2022-12-26T19:05:27.380Z,38.33
2022-12-26T19:07:54.817Z,37.28
2022-12-26T19:10:26.619Z,35.17
2022-12-26T19:12:53.505Z,34.72
2022-12-26T19:15:20.315Z,35.42
2022-12-26T19:17:47.142Z,34.25
2022-12-26T19:20:22.116Z,39.45
2022-12-26T19:22:49.633Z,36.50
2022-12-26T19:25:16.884Z,36.40
2022-12-26T19:27:45.149Z,37.95
2022-12-26T19:30:12.497Z,31.25
2022-12-26T19:32:39.263Z,36.70
2022-12-26T19:35:06.792Z,33.30
2022-12-26T19:37:33.378Z,33.90
2022-12-26T19:40:00.375Z,38.50
2022-12-26T19:42:26.946Z,42.00
2022-12-26T19:44:53.522Z,41.10
2022-12-26T19:47:20.665Z,31.98
2022-12-26T19:49:47.213Z,27.02
2022-12-26T19:52:13.803Z,32.70
2022-12-26T19:54:40.335Z,28.83
2022-12-26T19:57:07.014Z,26.63
2022-12-26T19:59:33.572Z,31.48
2022-12-26T20:02:00.616Z,31.90
2022-12-26T20:04:27.412Z,27.50
2022-12-26T20:06:53.976Z,31.35
2022-12-26T20:09:20.493Z,34.33
2022-12-26T20:11:54.070Z,33.58
2022-12-26T20:14:22.170Z,36.03
2022-12-26T20:17:08.766Z,33.50
2022-12-26T20:19:36.539Z,34.05
2022-12-26T20:22:04.372Z,31.50
2022-12-26T20:24:31.257Z,30.40
2022-12-26T20:26:58.404Z,32.53
2022-12-26T20:29:25.048Z,29.30
2022-12-26T20:31:55.115Z,28.92
2022-12-26T20:34:22.043Z,31.48
2022-12-26T20:36:48.597Z,29.00
2022-12-26T20:39:18.111Z,40.28
2022-12-26T20:41:45.144Z,33.40
2022-12-26T20:44:16.251Z,33.95
2022-12-26T20:46:43.333Z,39.20
2022-12-26T20:49:10.528Z,32.80
2022-12-26T20:51:39.403Z,38.15
2022-12-26T20:54:07.603Z,35.03
2022-12-26T20:56:35.754Z,33.75
2022-12-26T20:59:03.709Z,31.27
2022-12-26T21:01:30.644Z,33.92
2022-12-26T21:03:58.621Z,30.75
2022-12-26T21:06:29.369Z,36.03
2022-12-26T21:08:57.663Z,33.28
2022-12-26T21:11:26.308Z,30.55
2022-12-26T21:13:59.545Z,41.75
2022-12-26T21:16:37.627Z,31.48
2022-12-26T21:19:10.912Z,32.00
2022-12-26T21:21:43.586Z,38.58
2022-12-26T21:24:16.294Z,30.65
2022-12-26T21:26:43.676Z,32.58
2022-12-26T21:29:25.476Z,27.45
2022-12-26T21:31:53.724Z,28.73
2022-12-26T21:34:22.328Z,28.92
2022-12-26T21:37:07.926Z,38.30
2022-12-26T21:39:37.031Z,26.45
2022-12-26T21:42:06.126Z,29.23
2022-12-26T21:44:32.850Z,30.35
2022-12-26T21:46:59.443Z,26.27
2022-12-26T21:49:26.117Z,25.17
2022-12-26T21:51:52.708Z,26.50
2022-12-26T21:54:42.191Z,27.02
2022-12-26T21:57:13.153Z,26.00
2022-12-26T21:59:58.103Z,23.48
2022-12-26T22:02:55.242Z,29.42
2022-12-26T22:05:24.863Z,28.73
2022-12-26T22:08:00.094Z,28.80
2022-12-26T22:10:48.524Z,23.17
2022-12-26T22:13:15.495Z,25.02
2022-12-26T22:16:05.715Z,27.40
2022-12-26T22:18:39.079Z,30.58
2022-12-26T22:21:14.838Z,24.00
2022-12-26T22:23:43.294Z,27.02
2022-12-26T22:26:12.129Z,26.75
2022-12-26T22:28:39.724Z,24.10
2022-12-26T22:31:07.025Z,27.83
2022-12-26T22:33:33.713Z,27.83
2022-12-26T22:36:07.533Z,28.55
2022-12-26T22:38:35.898Z,28.90
2022-12-26T22:41:03.102Z,28.45
2022-12-26T22:43:32.149Z,31.48
2022-12-26T22:45:59.000Z,28.23
2022-12-26T22:48:25.570Z,28.20
2022-12-26T22:50:54.899Z,22.35
2022-12-26T22:53:26.034Z,25.38
2022-12-26T22:55:57.739Z,23.00
2022-12-26T22:58:24.282Z,18.13
2022-12-26T23:00:50.885Z,20.70
2022-12-26T23:03:19.312Z,23.27
2022-12-26T23:05:46.970Z,22.33
2022-12-26T23:08:21.338Z,21.42
2022-12-26T23:10:48.892Z,24.17
2022-12-26T23:13:16.126Z,27.80
2022-12-26T23:16:09.359Z,25.55
2022-12-26T23:19:04.237Z,30.85
2022-12-26T23:21:39.744Z,26.50
2022-12-26T23:24:12.466Z,21.63
2022-12-26T23:26:41.591Z,23.98
2022-12-26T23:29:29.752Z,23.83
2022-12-26T23:31:56.472Z,31.05
2022-12-26T23:34:23.110Z,25.90
2022-12-26T23:36:49.618Z,22.98
2022-12-26T23:39:16.343Z,20.48
2022-12-26T23:41:43.564Z,27.45
2022-12-26T23:44:10.195Z,28.95
2022-12-26T23:46:36.888Z,21.17
2022-12-26T23:49:03.465Z,19.98
2022-12-26T23:51:30.004Z,21.38
2022-12-26T23:53:56.525Z,21.42
2022-12-26T23:56:23.284Z,21.13
2022-12-26T23:58:49.796Z,22.92
